Time;durP1;ratioP1;P1;durP2;ratioP2;P2;SDS_P1;SDS_P2;PMS_P1;PMS_P2;Temp;Humidity;BMP_temperature;BMP_pressure;BME280_temperature;BME280_humidity;BME280_pressure;Samples;Min_cycle;Max_cycle;Signal;HPM_P1;HPM_P2
2022/02/20 00:00:44;;;;;;;6.20;5.53;;;5.20;99.90;;;;;;5048816;28;20131;-73
2022/02/20 00:03:09;;;;;;;6.72;6.03;;;5.20;99.90;;;;;;5041006;28;20094;-73
2022/02/20 00:05:36;;;;;;;8.25;6.10;;;5.10;99.90;;;;;;5049422;28;20044;-74
2022/02/20 00:08:02;;;;;;;7.88;6.43;;;5.00;99.90;;;;;;5041004;28;20049;-74
2022/02/20 00:10:28;;;;;;;6.88;5.45;;;5.10;99.90;;;;;;5051219;28;20032;-74
2022/02/20 00:12:54;;;;;;;7.00;5.18;;;5.10;99.90;;;;;;5050904;28;20471;-73
2022/02/20 00:15:19;;;;;;;5.57;4.85;;;5.00;99.90;;;;;;5053366;28;20071;-73
2022/02/20 00:17:50;;;;;;;6.00;5.35;;;4.90;99.90;;;;;;5046814;28;20044;-73
2022/02/20 00:20:15;;;;;;;5.55;5.13;;;4.90;99.90;;;;;;5045268;28;20037;-73
2022/02/20 00:22:41;;;;;;;4.82;4.38;;;4.80;99.90;;;;;;5048086;28;20056;-73
2022/02/20 00:25:07;;;;;;;5.60;5.05;;;4.80;99.90;;;;;;5043162;28;20048;-73
2022/02/20 00:27:33;;;;;;;5.15;4.75;;;4.70;99.90;;;;;;5048210;28;20040;-73
2022/02/20 00:29:58;;;;;;;5.32;4.93;;;4.70;99.90;;;;;;5051961;28;20037;-73
2022/02/20 00:32:25;;;;;;;5.43;4.93;;;4.60;99.90;;;;;;5051590;28;20041;-73
2022/02/20 00:34:50;;;;;;;5.50;5.10;;;4.60;99.90;;;;;;5042284;28;20053;-74
2022/02/20 00:37:16;;;;;;;5.90;5.40;;;4.60;99.90;;;;;;5052396;28;20090;-74
2022/02/20 00:39:41;;;;;;;5.47;5.07;;;4.60;99.90;;;;;;5049176;28;20037;-73
2022/02/20 00:42:07;;;;;;;4.97;4.15;;;4.60;99.90;;;;;;5050561;28;20041;-73
2022/02/20 00:44:33;;;;;;;5.15;4.57;;;4.60;99.90;;;;;;5042325;28;20103;-73
2022/02/20 00:46:58;;;;;;;5.10;4.70;;;4.60;99.90;;;;;;5049729;28;20434;-73
2022/02/20 00:49:24;;;;;;;5.78;4.53;;;4.50;99.90;;;;;;5050317;28;20052;-73
2022/02/20 00:51:49;;;;;;;5.07;4.60;;;4.40;99.90;;;;;;5043752;28;20045;-73
2022/02/20 00:54:15;;;;;;;4.95;4.50;;;4.30;99.90;;;;;;5050735;28;20041;-73
2022/02/20 00:56:40;;;;;;;5.45;4.93;;;4.30;99.90;;;;;;5052015;28;20043;-73
2022/02/20 00:59:06;;;;;;;4.78;4.38;;;4.20;99.90;;;;;;5051797;28;20105;-73
2022/02/20 01:01:32;;;;;;;4.38;3.80;;;4.20;99.90;;;;;;5040357;28;20044;-73
2022/02/20 01:03:59;;;;;;;4.97;4.45;;;4.20;99.90;;;;;;5051196;28;20055;-73
2022/02/20 01:06:24;;;;;;;5.15;4.65;;;4.20;99.90;;;;;;5051353;28;20041;-73
2022/02/20 01:08:50;;;;;;;4.82;4.43;;;4.30;99.90;;;;;;5051758;28;20074;-73
2022/02/20 01:11:16;;;;;;;5.68;5.18;;;4.20;99.90;;;;;;5049142;28;20140;-73
2022/02/20 01:13:43;;;;;;;5.15;4.65;;;4.10;99.90;;;;;;5029893;28;20048;-74
2022/02/20 01:16:08;;;;;;;4.20;3.85;;;4.00;99.90;;;;;;5032460;28;20037;-73
2022/02/20 01:18:34;;;;;;;4.95;4.55;;;4.20;99.90;;;;;;5049659;28;20463;-73
2022/02/20 01:21:00;;;;;;;4.43;4.03;;;4.10;99.90;;;;;;5050131;28;20049;-73
2022/02/20 01:23:25;;;;;;;4.93;3.97;;;4.00;99.90;;;;;;5043007;28;20038;-74
2022/02/20 01:25:51;;;;;;;3.30;3.00;;;4.00;99.90;;;;;;5040073;28;20104;-74
2022/02/20 01:28:17;;;;;;;3.10;2.90;;;4.00;99.90;;;;;;5066317;28;20041;-74
2022/02/20 01:30:43;;;;;;;3.25;2.88;;;4.10;99.90;;;;;;5043883;28;20039;-74
2022/02/20 01:33:09;;;;;;;2.78;2.47;;;3.90;99.90;;;;;;5033157;28;20356;-74
2022/02/20 01:35:34;;;;;;;3.42;2.42;;;3.90;99.90;;;;;;5033152;28;20537;-74
2022/02/20 01:38:00;;;;;;;3.00;2.67;;;3.80;99.90;;;;;;5040047;28;20040;-74
2022/02/20 01:40:27;;;;;;;3.10;2.90;;;3.90;99.90;;;;;;5043024;28;20086;-74
2022/02/20 01:42:53;;;;;;;3.75;3.35;;;4.00;99.90;;;;;;5032552;28;20393;-73
2022/02/20 01:45:18;;;;;;;3.63;3.10;;;3.90;99.90;;;;;;5049144;28;20041;-73
2022/02/20 01:47:44;;;;;;;3.30;2.83;;;4.00;99.90;;;;;;5044684;28;20540;-74
2022/02/20 01:50:15;;;;;;;3.25;3.00;;;4.00;99.90;;;;;;5043497;28;20052;-74
2022/02/20 01:52:40;;;;;;;3.78;3.47;;;4.00;99.90;;;;;;5050179;28;20048;-74
2022/02/20 01:55:07;;;;;;;3.65;3.30;;;4.00;99.90;;;;;;5048150;28;20033;-74
2022/02/20 01:57:39;;;;;;;4.05;3.42;;;4.00;99.90;;;;;;5037277;28;20068;-74
2022/02/20 02:00:14;;;;;;;4.55;3.45;;;4.00;99.90;;;;;;5043566;28;20048;-74
2022/02/20 02:02:40;;;;;;;6.00;3.75;;;4.00;99.90;;;;;;5047967;28;20056;-74
2022/02/20 02:05:06;;;;;;;3.95;3.47;;;4.10;99.90;;;;;;5033761;28;20069;-74
2022/02/20 02:07:32;;;;;;;4.80;3.75;;;4.10;99.90;;;;;;5049683;28;20489;-74
2022/02/20 02:09:58;;;;;;;4.32;3.70;;;4.10;99.90;;;;;;5050970;28;20045;-74
2022/02/20 02:12:24;;;;;;;3.47;2.70;;;4.00;99.90;;;;;;5049914;28;20044;-74
2022/02/20 02:14:53;;;;;;;3.22;2.70;;;4.10;99.90;;;;;;5050750;28;20047;-74
2022/02/20 02:17:19;;;;;;;2.50;2.30;;;4.20;99.90;;;;;;5067336;28;20045;-74
2022/02/20 02:19:44;;;;;;;2.95;2.75;;;4.10;99.90;;;;;;5040947;28;20090;-74
2022/02/20 02:22:10;;;;;;;2.83;2.63;;;4.20;99.90;;;;;;5041920;28;20494;-74
2022/02/20 02:24:35;;;;;;;3.05;2.75;;;4.10;99.90;;;;;;5059746;28;20036;-74
2022/02/20 02:27:02;;;;;;;3.25;2.97;;;4.10;99.90;;;;;;5051198;28;20040;-74
2022/02/20 02:29:28;;;;;;;3.42;2.75;;;4.10;99.90;;;;;;5042882;28;20102;-74
2022/02/20 02:31:53;;;;;;;3.15;2.85;;;4.10;99.90;;;;;;5048447;28;20041;-74
2022/02/20 02:34:20;;;;;;;3.55;2.80;;;4.20;99.90;;;;;;5049569;28;20037;-74
2022/02/20 02:36:52;;;;;;;3.70;3.38;;;4.20;99.90;;;;;;5050284;28;20044;-74
2022/02/20 02:39:17;;;;;;;3.60;2.90;;;4.20;99.90;;;;;;5049896;28;20095;-74
2022/02/20 02:41:43;;;;;;;4.00;3.38;;;4.20;99.90;;;;;;5044701;28;20041;-76
2022/02/20 02:44:09;;;;;;;3.72;3.35;;;4.20;99.90;;;;;;5028385;28;20038;-74
2022/02/20 02:46:34;;;;;;;3.75;3.38;;;4.10;99.90;;;;;;5047749;28;20478;-74
2022/02/20 02:49:01;;;;;;;3.30;3.00;;;4.00;99.90;;;;;;5049220;28;20045;-74
2022/02/20 02:51:27;;;;;;;3.60;3.30;;;3.90;99.90;;;;;;5040799;28;20068;-74
2022/02/20 02:53:55;;;;;;;3.92;3.63;;;3.80;99.90;;;;;;5044462;28;20545;-74
2022/02/20 02:56:20;;;;;;;3.55;3.25;;;3.70;99.90;;;;;;5049373;28;20037;-74
2022/02/20 02:58:46;;;;;;;5.35;4.13;;;3.60;99.90;;;;;;5049764;28;20073;-74
2022/02/20 03:01:12;;;;;;;3.42;3.03;;;3.60;99.90;;;;;;5043798;28;20079;-74
2022/02/20 03:03:37;;;;;;;3.38;3.08;;;3.50;99.90;;;;;;5048420;28;20048;-74
2022/02/20 03:06:11;;;;;;;3.53;3.22;;;3.50;99.90;;;;;;5048268;28;20041;-74
2022/02/20 03:08:36;;;;;;;4.03;3.63;;;3.50;99.90;;;;;;5049761;28;20608;-74
2022/02/20 03:11:03;;;;;;;4.90;3.38;;;3.40;99.90;;;;;;5050273;28;20194;-74
2022/02/20 03:13:30;;;;;;;3.42;3.13;;;3.40;99.90;;;;;;5050334;28;20052;-74
2022/02/20 03:15:56;;;;;;;3.90;3.47;;;3.40;99.90;;;;;;5049872;28;20175;-74
2022/02/20 03:18:21;;;;;;;5.60;3.90;;;3.40;99.90;;;;;;5043014;28;20111;-74
2022/02/20 03:20:47;;;;;;;3.90;3.60;;;3.40;99.90;;;;;;5038911;28;20037;-74
2022/02/20 03:23:13;;;;;;;3.80;3.50;;;3.40;99.90;;;;;;5040988;28;20053;-74
2022/02/20 03:25:39;;;;;;;4.05;3.75;;;3.40;99.90;;;;;;5045417;28;20475;-74
2022/02/20 03:28:04;;;;;;;4.55;3.80;;;3.40;99.90;;;;;;5044514;28;20691;-74
2022/02/20 03:30:30;;;;;;;5.25;3.60;;;3.30;99.90;;;;;;5049296;28;20084;-74
2022/02/20 03:32:56;;;;;;;3.78;3.45;;;3.30;99.90;;;;;;5032645;28;20041;-74
2022/02/20 03:35:22;;;;;;;3.33;3.03;;;3.20;99.90;;;;;;5042787;28;20414;-74
2022/02/20 03:37:48;;;;;;;3.88;3.50;;;3.20;99.90;;;;;;5044998;28;20045;-74
2022/02/20 03:40:14;;;;;;;4.80;3.67;;;3.20;99.90;;;;;;5031596;28;20040;-74
2022/02/20 03:42:39;;;;;;;3.63;3.33;;;3.10;99.90;;;;;;5029181;28;20041;-74
2022/02/20 03:45:06;;;;;;;4.13;3.67;;;3.10;99.90;;;;;;5032683;28;20386;-74
2022/02/20 03:47:33;;;;;;;3.90;3.53;;;3.10;99.90;;;;;;5047567;28;20047;-74
2022/02/20 03:49:58;;;;;;;4.28;3.88;;;3.00;99.90;;;;;;5049618;28;20127;-74
2022/02/20 03:52:24;;;;;;;3.90;3.53;;;3.00;99.90;;;;;;5025619;28;20120;-74
2022/02/20 03:54:49;;;;;;;3.92;3.53;;;3.00;99.90;;;;;;5046316;28;20098;-74
2022/02/20 03:57:15;;;;;;;3.78;3.47;;;3.00;99.90;;;;;;5029974;28;20102;-74
2022/02/20 03:59:40;;;;;;;3.78;3.45;;;3.00;99.90;;;;;;5048700;28;20048;-74
2022/02/20 04:02:06;;;;;;;4.60;3.72;;;2.90;99.90;;;;;;5045588;28;20041;-74
2022/02/20 04:04:32;;;;;;;4.53;3.95;;;2.90;99.90;;;;;;5047510;28;20038;-74
2022/02/20 04:06:57;;;;;;;3.83;3.50;;;2.90;99.90;;;;;;5027073;28;20482;-74
2022/02/20 04:09:23;;;;;;;3.53;3.22;;;2.90;99.90;;;;;;5030633;28;20464;-74
2022/02/20 04:11:48;;;;;;;3.97;3.58;;;2.90;99.90;;;;;;5045180;28;20143;-74
2022/02/20 04:14:14;;;;;;;4.68;3.67;;;2.90;99.90;;;;;;5040510;28;20045;-74
2022/02/20 04:16:40;;;;;;;4.07;3.60;;;3.00;99.90;;;;;;5033732;28;20033;-74
2022/02/20 04:19:05;;;;;;;4.10;3.80;;;2.90;99.90;;;;;;5025274;28;20129;-74
2022/02/20 04:21:31;;;;;;;4.70;4.00;;;2.90;99.90;;;;;;5013941;28;20052;-74
2022/02/20 04:23:56;;;;;;;4.78;4.18;;;3.00;99.90;;;;;;5040775;28;20041;-74
2022/02/20 04:26:22;;;;;;;4.50;3.88;;;3.00;99.90;;;;;;5047297;28;20090;-74
2022/02/20 04:28:49;;;;;;;5.70;3.97;;;3.00;99.90;;;;;;5040081;28;20085;-74
2022/02/20 04:31:14;;;;;;;4.72;3.78;;;3.10;99.90;;;;;;5038607;28;20101;-74
2022/02/20 04:33:40;;;;;;;4.53;3.75;;;3.10;99.90;;;;;;5049930;28;20078;-74
2022/02/20 04:36:06;;;;;;;3.35;3.05;;;3.10;99.90;;;;;;5051456;28;20121;-74
2022/02/20 04:38:31;;;;;;;5.57;3.30;;;3.20;99.90;;;;;;5043756;28;20037;-74
2022/02/20 04:40:57;;;;;;;4.57;3.10;;;3.20;99.90;;;;;;5033864;28;20065;-74
2022/02/20 04:43:22;;;;;;;4.38;3.17;;;3.20;99.90;;;;;;5037971;28;20029;-74
2022/02/20 04:45:48;;;;;;;4.97;3.20;;;3.30;99.90;;;;;;5034876;28;20084;-74
2022/02/20 04:48:13;;;;;;;4.65;2.70;;;3.30;99.90;;;;;;5023898;28;20060;-74
2022/02/20 04:50:39;;;;;;;4.78;3.33;;;3.40;99.90;;;;;;5048514;28;20044;-74
2022/02/20 04:53:04;;;;;;;4.18;2.80;;;3.40;99.90;;;;;;5049087;28;20041;-74
2022/02/20 04:55:30;;;;;;;5.13;3.13;;;3.40;99.90;;;;;;5030948;28;20037;-74
2022/02/20 04:57:56;;;;;;;5.40;3.30;;;3.50;99.90;;;;;;5040537;28;20441;-74
2022/02/20 05:00:21;;;;;;;4.57;3.03;;;3.50;99.90;;;;;;5039805;28;20037;-74
2022/02/20 05:02:47;;;;;;;3.40;2.90;;;3.50;99.90;;;;;;5049789;28;20099;-74
2022/02/20 05:05:12;;;;;;;4.65;3.50;;;3.60;99.90;;;;;;5038571;28;20043;-74
2022/02/20 05:07:38;;;;;;;3.65;3.10;;;3.70;99.90;;;;;;5027829;28;20068;-74
2022/02/20 05:10:04;;;;;;;3.63;3.05;;;3.70;99.90;;;;;;5041878;28;20536;-74
2022/02/20 05:12:30;;;;;;;4.82;3.25;;;3.80;99.90;;;;;;5050324;28;20043;-74
2022/02/20 05:14:56;;;;;;;7.38;3.25;;;3.80;99.90;;;;;;5051675;28;20186;-74
2022/02/20 05:17:21;;;;;;;3.95;3.00;;;3.80;99.90;;;;;;5046344;28;20094;-74
2022/02/20 05:19:47;;;;;;;3.97;3.00;;;3.80;99.90;;;;;;5026834;28;20813;-74
2022/02/20 05:22:12;;;;;;;4.28;3.25;;;3.80;99.90;;;;;;5048927;28;20151;-74
2022/02/20 05:24:38;;;;;;;3.88;3.00;;;3.90;99.90;;;;;;5040723;28;20099;-74
2022/02/20 05:27:04;;;;;;;3.45;2.80;;;3.90;99.90;;;;;;5041649;28;20064;-74
2022/02/20 05:29:29;;;;;;;3.28;2.83;;;4.00;99.90;;;;;;5046740;28;20655;-74
2022/02/20 05:31:55;;;;;;;3.58;2.72;;;4.00;99.90;;;;;;5065959;28;20033;-74
2022/02/20 05:34:21;;;;;;;3.70;2.80;;;4.00;99.90;;;;;;5050911;28;20037;-74
2022/02/20 05:36:46;;;;;;;4.93;3.03;;;4.10;99.90;;;;;;5040677;28;20768;-74
2022/02/20 05:39:12;;;;;;;3.58;2.97;;;4.10;99.90;;;;;;5032973;28;20482;-74
2022/02/20 05:41:37;;;;;;;3.78;2.88;;;4.10;99.90;;;;;;5027573;28;20678;-74
2022/02/20 05:44:03;;;;;;;5.57;3.47;;;4.20;99.90;;;;;;5032562;28;20038;-74
2022/02/20 05:46:29;;;;;;;4.57;2.35;;;4.20;99.90;;;;;;5039208;28;20446;-74
2022/02/20 05:48:55;;;;;;;5.32;2.83;;;4.20;99.90;;;;;;5037822;28;20041;-74
2022/02/20 05:51:20;;;;;;;3.72;2.45;;;4.30;99.90;;;;;;5046964;28;20045;-74
2022/02/20 05:53:46;;;;;;;4.82;2.63;;;4.30;99.90;;;;;;5026693;28;20046;-74
2022/02/20 05:56:11;;;;;;;4.38;2.60;;;4.30;99.90;;;;;;5028112;28;20546;-74
2022/02/20 05:58:37;;;;;;;4.68;2.42;;;4.40;99.90;;;;;;5050770;28;20048;-74
2022/02/20 06:01:02;;;;;;;6.53;2.60;;;4.50;99.90;;;;;;5030917;28;20066;-74
2022/02/20 06:03:28;;;;;;;6.05;2.53;;;4.50;99.90;;;;;;5049810;28;20390;-74
2022/02/20 06:05:54;;;;;;;3.22;1.92;;;4.50;99.90;;;;;;5046101;28;20041;-74
2022/02/20 06:08:19;;;;;;;4.10;2.15;;;4.50;99.90;;;;;;5036338;28;20039;-74
2022/02/20 06:10:46;;;;;;;6.53;2.78;;;4.50;99.90;;;;;;5049949;28;20163;-74
2022/02/20 06:13:11;;;;;;;5.93;2.15;;;4.50;99.90;;;;;;5046588;28;20040;-74
2022/02/20 06:15:37;;;;;;;4.93;2.20;;;4.60;99.90;;;;;;5042745;28;20423;-74
2022/02/20 06:18:03;;;;;;;4.30;2.65;;;4.50;99.90;;;;;;5049699;28;20040;-74
2022/02/20 06:20:28;;;;;;;3.65;2.80;;;4.60;99.90;;;;;;5050115;28;20137;-74
2022/02/20 06:22:56;;;;;;;3.65;2.40;;;4.60;99.90;;;;;;5050754;28;20581;-74
2022/02/20 06:25:22;;;;;;;4.20;2.25;;;4.60;99.90;;;;;;5046347;28;20363;-74
2022/02/20 06:27:49;;;;;;;5.78;2.53;;;4.60;99.90;;;;;;5032267;28;20041;-74
2022/02/20 06:30:14;;;;;;;4.13;2.30;;;4.60;99.90;;;;;;5045299;28;20033;-74
2022/02/20 06:32:40;;;;;;;4.25;2.63;;;4.60;99.90;;;;;;5043296;28;20167;-74
2022/02/20 06:35:06;;;;;;;5.10;2.88;;;4.70;99.90;;;;;;5058880;28;20469;-74
2022/02/20 06:37:32;;;;;;;4.60;2.75;;;4.70;99.90;;;;;;5041422;28;20048;-74
2022/02/20 06:39:58;;;;;;;4.65;3.17;;;4.70;99.90;;;;;;5039513;28;20033;-74
2022/02/20 06:42:23;;;;;;;4.32;3.42;;;4.70;99.90;;;;;;5040658;28;20045;-74
2022/02/20 06:44:49;;;;;;;2.97;2.72;;;4.70;99.90;;;;;;5043310;28;20046;-74
2022/02/20 06:47:15;;;;;;;6.53;3.55;;;4.70;99.90;;;;;;5038585;28;20458;-74
2022/02/20 06:49:40;;;;;;;6.78;3.95;;;4.70;99.90;;;;;;5049216;28;20037;-74
2022/02/20 06:52:06;;;;;;;3.80;3.28;;;4.60;99.90;;;;;;5044107;28;20055;-74
2022/02/20 06:54:32;;;;;;;4.38;2.85;;;4.70;99.90;;;;;;5031515;28;20040;-74
2022/02/20 06:56:58;;;;;;;4.72;3.08;;;4.70;99.90;;;;;;5026671;28;20536;-74
2022/02/20 06:59:25;;;;;;;4.50;2.97;;;4.70;99.90;;;;;;5045869;28;20111;-74
2022/02/20 07:01:51;;;;;;;5.45;2.83;;;4.70;99.90;;;;;;5040657;28;20062;-74
2022/02/20 07:04:16;;;;;;;4.68;3.15;;;4.80;99.90;;;;;;5055257;28;20037;-74
2022/02/20 07:06:43;;;;;;;5.28;2.90;;;4.80;99.90;;;;;;5057070;28;20049;-74
2022/02/20 07:09:12;;;;;;;4.55;3.05;;;4.80;99.90;;;;;;5049328;28;20513;-74
2022/02/20 07:11:39;;;;;;;3.95;2.58;;;4.90;99.90;;;;;;5049600;28;20071;-74
2022/02/20 07:14:05;;;;;;;3.03;2.60;;;4.90;99.90;;;;;;5049458;28;20032;-74
2022/02/20 07:16:32;;;;;;;3.60;2.42;;;5.00;99.90;;;;;;5047705;28;20150;-73
2022/02/20 07:18:58;;;;;;;4.72;2.78;;;5.00;99.90;;;;;;5049421;28;20037;-73
2022/02/20 07:21:24;;;;;;;4.60;2.67;;;5.00;99.90;;;;;;5049447;28;20044;-73
2022/02/20 07:23:51;;;;;;;3.80;3.17;;;4.90;99.90;;;;;;5034517;28;20032;-73
2022/02/20 07:26:16;;;;;;;8.48;3.15;;;5.00;99.90;;;;;;5039677;28;20518;-73
2022/02/20 07:28:42;;;;;;;5.78;4.03;;;4.90;99.90;;;;;;5041928;28;20056;-73
2022/02/20 07:31:07;;;;;;;4.70;3.65;;;4.80;99.90;;;;;;5036032;28;20045;-73
2022/02/20 07:33:33;;;;;;;5.05;3.40;;;4.90;99.90;;;;;;5041273;28;20136;-73
2022/02/20 07:35:59;;;;;;;5.03;3.92;;;4.90;99.90;;;;;;5049288;28;20052;-73
2022/02/20 07:38:25;;;;;;;6.85;3.47;;;4.90;99.90;;;;;;5031593;28;20482;-73
2022/02/20 07:40:51;;;;;;;6.35;4.10;;;4.90;99.90;;;;;;5033989;28;20076;-73
2022/02/20 07:43:17;;;;;;;5.00;4.05;;;5.00;99.90;;;;;;5013738;28;20419;-73
2022/02/20 07:45:42;;;;;;;8.30;4.28;;;5.00;99.90;;;;;;5030937;28;20167;-73
2022/02/20 07:48:08;;;;;;;4.50;3.97;;;5.10;99.90;;;;;;5048978;28;20082;-73
2022/02/20 07:50:36;;;;;;;7.03;4.88;;;5.00;99.90;;;;;;5046396;28;20502;-73
2022/02/20 07:53:03;;;;;;;8.07;5.00;;;4.90;99.90;;;;;;5048309;28;20131;-73
2022/02/20 07:55:30;;;;;;;6.88;4.72;;;4.90;99.90;;;;;;5048780;28;20049;-73
2022/02/20 07:57:55;;;;;;;8.25;4.60;;;4.80;99.90;;;;;;5048076;28;20037;-73
2022/02/20 08:00:26;;;;;;;7.15;4.68;;;5.00;99.90;;;;;;5035230;28;20041;-73
2022/02/20 08:02:51;;;;;;;6.03;4.20;;;5.00;99.90;;;;;;5036387;28;20048;-73
2022/02/20 08:05:17;;;;;;;7.05;5.43;;;5.00;99.90;;;;;;5049062;28;20047;-73
2022/02/20 08:07:42;;;;;;;8.63;6.30;;;5.10;99.90;;;;;;5053440;28;20049;-73
2022/02/20 08:10:09;;;;;;;8.93;6.20;;;5.20;99.90;;;;;;5049166;28;20040;-73
2022/02/20 08:12:35;;;;;;;9.55;5.25;;;5.20;99.90;;;;;;5040739;28;20128;-73
2022/02/20 08:15:00;;;;;;;7.13;4.80;;;5.20;99.90;;;;;;5037586;28;20176;-73
2022/02/20 08:17:26;;;;;;;7.85;5.00;;;5.20;99.90;;;;;;5054150;28;20049;-73
2022/02/20 08:19:52;;;;;;;5.60;4.40;;;5.20;99.90;;;;;;5036973;28;20037;-73
2022/02/20 08:22:19;;;;;;;6.13;4.75;;;5.30;99.90;;;;;;5041004;28;20037;-73
2022/02/20 08:24:45;;;;;;;6.65;5.07;;;5.40;99.90;;;;;;5034945;28;20034;-74
2022/02/20 08:27:12;;;;;;;6.18;4.88;;;5.40;99.90;;;;;;5036222;28;20029;-73
2022/02/20 08:29:38;;;;;;;7.18;4.93;;;5.50;99.90;;;;;;5049714;28;20029;-73
2022/02/20 08:32:04;;;;;;;5.32;4.75;;;5.50;99.90;;;;;;5046964;28;20493;-73
2022/02/20 08:34:30;;;;;;;6.78;5.18;;;5.50;99.90;;;;;;5046057;28;20052;-73
2022/02/20 08:36:55;;;;;;;6.97;5.20;;;5.60;99.90;;;;;;5047163;28;20041;-73
2022/02/20 08:39:21;;;;;;;6.15;5.38;;;5.60;99.90;;;;;;5047103;28;20483;-73
2022/02/20 08:41:47;;;;;;;4.97;4.45;;;5.70;99.90;;;;;;5022109;28;20052;-73
2022/02/20 08:44:13;;;;;;;6.03;4.72;;;5.70;99.90;;;;;;5033386;28;20654;-73
2022/02/20 08:46:39;;;;;;;6.90;5.13;;;5.90;99.90;;;;;;5040662;28;20042;-73
2022/02/20 08:49:05;;;;;;;6.82;5.38;;;6.00;99.90;;;;;;5033251;28;20427;-73
2022/02/20 08:51:31;;;;;;;5.90;4.70;;;6.00;99.90;;;;;;5039822;28;20037;-73
2022/02/20 08:53:57;;;;;;;6.60;5.93;;;6.00;99.90;;;;;;5050772;28;20490;-73
2022/02/20 08:56:26;;;;;;;10.23;6.30;;;6.10;99.90;;;;;;5043966;28;20045;-73
2022/02/20 08:58:52;;;;;;;6.45;5.15;;;6.20;99.90;;;;;;5050939;28;20098;-73
2022/02/20 09:01:18;;;;;;;7.50;5.72;;;6.20;99.90;;;;;;5052072;28;20037;-73
2022/02/20 09:03:43;;;;;;;5.05;4.43;;;6.20;99.90;;;;;;5046089;28;20048;-73
2022/02/20 09:06:09;;;;;;;6.82;5.35;;;6.40;99.90;;;;;;5046247;28;20061;-73
2022/02/20 09:08:34;;;;;;;7.38;5.20;;;6.50;99.90;;;;;;5052288;28;20088;-73
2022/02/20 09:11:00;;;;;;;6.07;4.05;;;6.60;99.90;;;;;;5053243;28;20041;-73
2022/02/20 09:13:25;;;;;;;5.88;4.28;;;6.70;99.90;;;;;;5051706;28;20033;-73
2022/02/20 09:15:51;;;;;;;5.32;4.47;;;6.80;99.90;;;;;;5048821;28;20114;-72
2022/02/20 09:18:17;;;;;;;5.72;5.13;;;6.80;99.90;;;;;;5043926;28;20045;-73
2022/02/20 09:20:42;;;;;;;4.85;4.32;;;6.90;99.90;;;;;;5045682;28;20041;-72
2022/02/20 09:23:08;;;;;;;6.05;4.38;;;6.90;99.90;;;;;;5052131;28;20037;-72
2022/02/20 09:25:33;;;;;;;4.22;3.83;;;7.00;99.90;;;;;;5052871;28;20140;-72
2022/02/20 09:27:59;;;;;;;5.32;4.82;;;7.20;99.90;;;;;;5050521;28;20128;-72
2022/02/20 09:30:25;;;;;;;4.28;3.40;;;7.30;99.90;;;;;;5044681;28;20048;-72
2022/02/20 09:32:50;;;;;;;4.05;3.65;;;7.30;99.90;;;;;;5047332;28;20045;-72
2022/02/20 09:35:16;;;;;;;3.80;3.00;;;7.30;99.90;;;;;;5034101;28;20047;-73
2022/02/20 09:37:42;;;;;;;3.30;2.70;;;7.40;99.90;;;;;;5044325;28;20065;-72
2022/02/20 09:40:08;;;;;;;4.30;2.85;;;7.40;99.90;;;;;;5052503;28;20467;-73
2022/02/20 09:42:34;;;;;;;3.78;2.90;;;7.50;99.90;;;;;;5036908;28;20118;-73
2022/02/20 09:44:59;;;;;;;4.15;3.20;;;7.60;99.90;;;;;;5032546;28;20639;-73
2022/02/20 09:47:29;;;;;;;4.78;2.85;;;7.70;99.90;;;;;;5046627;28;20367;-73
2022/02/20 09:50:00;;;;;;;4.38;2.00;;;7.80;99.90;;;;;;5052340;28;20044;-73
2022/02/20 09:52:26;;;;;;;4.15;2.47;;;7.90;99.90;;;;;;5020953;23;20093;-72
2022/02/20 09:54:52;;;;;;;8.48;2.35;;;8.00;99.90;;;;;;5029968;28;20041;-72
2022/02/20 09:57:17;;;;;;;7.30;2.92;;;8.10;99.90;;;;;;5030577;28;20694;-73
2022/02/20 09:59:43;;;;;;;6.07;1.88;;;8.10;99.90;;;;;;5044408;28;20409;-73
2022/02/20 10:02:10;;;;;;;8.80;2.70;;;8.20;99.90;;;;;;5049398;28;20078;-73
2022/02/20 10:04:50;;;;;;;7.18;2.80;;;8.30;99.90;;;;;;5052360;28;20044;-73
2022/02/20 10:07:29;;;;;;;13.38;3.03;;;8.40;99.90;;;;;;5051253;28;20036;-73
2022/02/20 10:10:15;;;;;;;13.77;3.70;;;8.50;99.90;;;;;;5021611;28;20076;-72
2022/02/20 10:12:42;;;;;;;10.70;2.50;;;8.60;99.90;;;;;;5031268;28;20475;-72
2022/02/20 10:15:39;;;;;;;17.80;3.20;;;8.80;99.90;;;;;;5049529;28;20196;-72
2022/02/20 10:18:12;;;;;;;22.48;4.20;;;8.90;99.90;;;;;;5051095;28;20047;-72
2022/02/20 10:20:38;;;;;;;22.95;4.53;;;9.00;99.90;;;;;;5017625;28;20037;-72
2022/02/20 10:23:05;;;;;;;23.77;4.05;;;9.00;99.90;;;;;;5022255;28;20379;-72
2022/02/20 10:25:31;;;;;;;19.20;3.95;;;9.00;99.90;;;;;;5036803;28;20052;-72
2022/02/20 10:27:57;;;;;;;18.90;3.92;;;9.20;99.90;;;;;;5037866;28;20033;-72
2022/02/20 10:30:28;;;;;;;24.08;4.53;;;9.20;99.90;;;;;;5038440;28;20122;-72
2022/02/20 10:33:20;;;;;;;22.20;4.13;;;9.30;99.90;;;;;;5029572;28;20048;-72
2022/02/20 10:35:50;;;;;;;17.85;3.28;;;9.30;99.90;;;;;;5030352;28;20037;-72
2022/02/20 10:38:21;;;;;;;22.25;5.25;;;9.30;99.90;;;;;;5035685;28;20048;-72
2022/02/20 10:40:53;;;;;;;19.45;4.45;;;9.30;99.90;;;;;;5010952;28;20045;-72
2022/02/20 10:43:33;;;;;;;21.20;4.07;;;9.30;99.90;;;;;;5045622;28;20159;-72
2022/02/20 10:46:13;;;;;;;21.80;4.32;;;9.40;99.90;;;;;;5045021;28;20037;-72
2022/02/20 10:48:47;;;;;;;20.35;3.50;;;9.40;99.90;;;;;;5025096;28;20509;-72
2022/02/20 10:51:15;;;;;;;20.65;5.03;;;9.40;99.90;;;;;;5015269;28;20071;-72
2022/02/20 10:53:42;;;;;;;18.60;4.40;;;9.50;99.90;;;;;;5043364;28;20041;-72
2022/02/20 10:56:08;;;;;;;16.05;4.43;;;9.50;99.90;;;;;;5028507;28;20512;-72
2022/02/20 10:58:41;;;;;;;21.77;4.70;;;9.60;99.90;;;;;;5018295;28;20041;-72
2022/02/20 11:01:06;;;;;;;17.17;4.97;;;9.60;99.90;;;;;;5041129;28;20044;-72
2022/02/20 11:03:39;;;;;;;20.33;4.38;;;9.60;99.90;;;;;;5016250;28;20041;-73
2022/02/20 11:06:05;;;;;;;25.15;5.78;;;9.60;99.90;;;;;;5026519;28;20891;-72
2022/02/20 11:08:31;;;;;;;25.92;5.22;;;9.50;99.90;;;;;;5027894;28;20025;-72
2022/02/20 11:10:57;;;;;;;25.05;5.43;;;9.50;99.90;;;;;;5044539;28;20088;-72
2022/02/20 11:13:23;;;;;;;19.77;5.07;;;9.50;99.90;;;;;;5041049;28;20048;-72
2022/02/20 11:15:51;;;;;;;21.10;4.47;;;9.70;99.90;;;;;;5020268;28;20039;-72
2022/02/20 11:18:21;;;;;;;32.28;5.30;;;9.70;99.90;;;;;;5025939;28;20479;-73
2022/02/20 11:20:51;;;;;;;20.85;4.50;;;9.70;99.90;;;;;;5033374;28;20533;-72
2022/02/20 11:23:24;;;;;;;25.70;4.57;;;9.70;99.90;;;;;;5023961;28;20048;-73
2022/02/20 11:25:52;;;;;;;25.20;4.53;;;9.70;99.90;;;;;;5036719;28;20426;-72
2022/02/20 11:28:17;;;;;;;29.00;6.53;;;9.70;99.90;;;;;;5037735;28;20083;-73
2022/02/20 11:30:43;;;;;;;31.60;6.78;;;9.70;99.90;;;;;;5036712;28;20034;-73
2022/02/20 11:33:10;;;;;;;22.83;4.53;;;9.70;99.90;;;;;;5037480;28;20483;-73
2022/02/20 11:35:54;;;;;;;22.50;4.30;;;9.90;99.90;;;;;;5033954;28;20115;-73
2022/02/20 11:38:22;;;;;;;23.88;4.22;;;9.80;99.90;;;;;;5015573;28;20037;-73
2022/02/20 11:40:59;;;;;;;25.85;5.30;;;9.80;99.90;;;;;;5040165;28;20517;-73
2022/02/20 11:44:14;;;;;;;24.65;5.10;;;9.80;99.90;;;;;;5038760;28;20037;-73
2022/02/20 11:46:53;;;;;;;25.85;5.65;;;9.90;99.90;;;;;;4974180;28;20051;-73
2022/02/20 11:49:27;;;;;;;14.60;3.95;;;9.80;99.90;;;;;;5032647;28;20029;-73
2022/02/20 11:51:59;;;;;;;22.67;5.28;;;9.80;99.90;;;;;;5016108;28;20134;-73
2022/02/20 11:54:25;;;;;;;12.65;3.05;;;9.80;99.90;;;;;;5039350;28;20473;-72
2022/02/20 11:57:12;;;;;;;26.05;5.93;;;9.80;99.90;;;;;;5018859;28;20079;-72
2022/02/20 12:00:06;;;;;;;28.88;5.55;;;9.80;99.90;;;;;;5013319;28;20402;-72
2022/02/20 12:02:32;;;;;;;26.88;6.28;;;9.80;99.90;;;;;;5018434;28;20049;-72
2022/02/20 12:04:57;;;;;;;27.35;5.40;;;9.80;99.90;;;;;;5017159;28;20052;-72
2022/02/20 12:07:31;;;;;;;23.52;5.25;;;9.80;99.90;;;;;;5046684;28;20094;-72
2022/02/20 12:10:27;;;;;;;31.65;5.00;;;9.80;99.90;;;;;;5008075;28;20487;-72
2022/02/20 12:13:05;;;;;;;27.10;5.88;;;9.80;99.90;;;;;;5037126;28;20045;-73
2022/02/20 12:15:40;;;;;;;26.27;6.18;;;9.80;99.90;;;;;;5028872;28;20441;-73
2022/02/20 12:18:12;;;;;;;27.02;5.18;;;9.70;99.90;;;;;;5006444;28;20059;-72
2022/02/20 12:20:49;;;;;;;;;;;9.70;99.90;;;;;;5046992;28;20474;-72
2022/02/20 12:23:31;;;;;;;25.05;5.57;;;9.70;99.90;;;;;;5037054;28;19925;-73
2022/02/20 12:26:03;;;;;;;30.70;5.90;;;9.80;99.90;;;;;;5014763;28;20493;-72
2022/02/20 12:28:40;;;;;;;20.30;4.03;;;9.80;99.90;;;;;;5006845;28;20045;-72
2022/02/20 12:31:14;;;;;;;29.98;5.63;;;9.80;99.90;;;;;;5033633;28;20494;-72
2022/02/20 12:33:45;;;;;;;27.33;5.70;;;9.70;99.90;;;;;;5023630;28;20478;-73
2022/02/20 12:36:11;;;;;;;20.45;4.05;;;9.80;99.90;;;;;;5029694;28;20033;-73
2022/02/20 12:38:54;;;;;;;25.42;5.45;;;9.90;99.90;;;;;;5022974;28;20528;-72
2022/02/20 12:41:20;;;;;;;20.15;4.15;;;9.90;99.90;;;;;;5031019;28;20117;-73
2022/02/20 12:43:55;;;;;;;26.08;5.68;;;9.90;99.90;;;;;;5018780;28;20542;-73
2022/02/20 12:46:21;;;;;;;30.58;5.50;;;9.90;99.90;;;;;;5033358;28;20064;-73
2022/02/20 12:48:48;;;;;;;23.15;5.30;;;9.80;99.90;;;;;;5006833;28;20091;-73
2022/02/20 12:51:14;;;;;;;25.42;4.95;;;9.90;99.90;;;;;;5044989;28;20047;-73
2022/02/20 12:53:46;;;;;;;22.83;4.88;;;9.80;99.90;;;;;;5013858;28;20053;-73
2022/02/20 12:56:12;;;;;;;;;;;9.90;99.90;;;;;;5024156;28;20052;-73